Ilheus Aeroporto, Brazil
Current Conditions -  °F | °C
As of 12:00 AM on Saturday 20 Dec 2014 (Local Time) from SBIL Reporting Station
Light Rain Light Rain  
Wind Chill: 75°   Ceiling: 2000
Heat Index: 75°   Visibility: 4mi
Dew Point: 73°   Wind: 5mph
Humidity: 94%   Direction: 270°W
Pressure: 29.91"   Gusts: NA
Location:  14.82°S, 39.03°W
Report Text: SBIL 200300Z 27004KT 7000 -RA SCT015 BKN020 BKN070 24/23 Q1013
Loading
Personal Weather Stations






























Interactive Weather Map New forecast layout! Learn more

10-Day Weather Forecast

Advertisements
Track Severe Weather on mobile